Aérodrome :
LOGIN :

S'inscrire | Disclaimer

   EN    FR    IT 

 










Légende :    VFR   VFR Marginal   IFR   IFR Intensif   IFR Très Intensif
Visi : 
Plafond : 
>= 8 km
>= 3000ft
5 à 8 km
1000 à 3000 ft
1500m à 5 km
500 à 1000 ft
800 à 1500m
200 à 500 ft
< 800m
< 200 ft
Symboles :   Orages  Brouillard  Fortes neiges  Fortes précipitations  Vent > 20 kt
SIGMETs :   Divers  Orages  Givrage  Turbulence  Onde Orograph.  Cendres Volcan.






- Altitude de l'aérodrome : 436 ft
- Code IATA : BTS


LZIB - Bratislava

DERNIER METAR :
  • 260300Z 08004KT 050V110 2500 -FZDZ BR BKN002 OVC003 M01/M02 Q1023 R88/CLRD//

METARs EXPIRÉS :
  • 260230Z 12003KT 2500 -FZDZ BR BKN002 OVC003 M01/M01 Q1023 R88/CLRD//
  • 260200Z 14002KT 3000 -FZDZ BR OVC003 M01/M02 Q1023 R88/CLRD//
  • 260130Z 10003KT 060V150 3500 -FZDZ BR SCT002 OVC003 M01/M01 Q1024 R88/CLRD//
  • 260100Z 10003KT 070V140 3800 -FZDZ BR OVC003 M01/M02 Q1024 R88/CLRD//
  • 260030Z 11003KT 070V150 3500 -FZDZ BR OVC003 M01/M01 Q1023 R88/CLRD//

TAF TAF LZIB
Valide du 26 à 00h jusqu'au 27 à 00h UTC


252300Z 2600/2700 VRB02KT 3000 BR OVC003
TEMPO 2600/2608 06005KT 0800 FZFG OVC001
PROB40
TEMPO 2602/2607 0300 -FZDZ FZFG
TEMPO 2610/2616 05008KT 6000 SCT003 BKN010
BECMG 2617/2619 1500 BR BKN002
TEMPO 2620/2700 0400 FZFG OVC001



MET'MAP, la Météo Aéronautique d'un coup d'oeil ! - Copyright ORBIFLY Décembre 2007 - Disclaimer

ORBIFLY MET'MAP TEAM :

Programmation & Développement : Alexandra Zaïnal
Sur une idée originale de : Baudouin d'Aumeries
Assistance à la programmation : Marc-Olivier Méhu
Soutien technique & logistique : Manuel Goepfert

Contact : metmap@orbifly.com




SOURCES & CREDITS :

   NOAA